KTAD/TAD METAR and TAF weather

Enter ICAO airport designator
Station Type Date Time Source
KTAD METAR 2021/05/14 11:54 UTC NOAA

KTAD 141154Z AUTO 25009KT 10SM CLR 08/03 A3012 RMK AO2 SLP141 7//// T00830033 10150 20083 53008


Station Type Date Time Source
KTAD Decoded METAR 2021/05/14 11:54 UTC NOAA

Trinidad, Perry Stokes Airport, CO, United States (KTAD) 37-16N 104-26W
May 14, 2021 - 07:54 AM EDT / 2021.05.14 1154 UTC
Wind: from the WSW (250 degrees) at 10 MPH (9 KT):0
Visibility: 10 mile(s):0
Sky conditions: clear
Temperature: 46.9 F (8.3 C)
Dew Point: 37.9 F (3.3 C)
Relative Humidity: 70%
Pressure (altimeter): 30.12 in. Hg (1019 hPa)
Pressure tendency: 0.02 inches (0.8 hPa) higher than three hours ago
ob: KTAD 141154Z AUTO 25009KT 10SM CLR 08/03 A3012 RMK AO2 SLP141 7//// T00830033 10150 20083 53008
cycle: 12

Station Type Date Time Source
KTAD TAF UTC NOAA

Error!

Example: see airport list